createdAt,value
2023-03-17T00:03:03.379Z,18.53
2023-03-17T00:13:04.661Z,18.53
2023-03-17T00:23:05.945Z,18.52
2023-03-17T00:33:07.201Z,18.49
2023-03-17T00:43:08.460Z,18.51
2023-03-17T00:53:09.775Z,18.55
2023-03-17T01:03:11.008Z,18.52
2023-03-17T01:13:12.354Z,18.54
2023-03-17T01:23:13.653Z,18.53
2023-03-17T01:33:14.891Z,18.49
2023-03-17T01:43:16.172Z,18.49
2023-03-17T01:53:17.435Z,18.49
2023-03-17T02:03:18.719Z,18.46
2023-03-17T02:13:19.956Z,18.45
2023-03-17T02:23:21.219Z,18.46
2023-03-17T02:33:22.470Z,18.42
2023-03-17T02:43:23.762Z,18.42
2023-03-17T02:53:25.024Z,18.37
2023-03-17T03:03:26.298Z,18.40
2023-03-17T03:13:27.576Z,18.36
2023-03-17T03:23:28.835Z,18.43
2023-03-17T03:33:30.109Z,18.35
2023-03-17T03:43:31.350Z,18.41
2023-03-17T03:53:32.596Z,18.36
2023-03-17T04:03:33.940Z,18.37
2023-03-17T04:13:35.238Z,18.37
2023-03-17T04:23:36.483Z,18.38
2023-03-17T04:33:37.732Z,18.38
2023-03-17T04:43:39.002Z,18.31
2023-03-17T04:53:40.256Z,18.34
2023-03-17T05:03:41.493Z,18.35
2023-03-17T05:13:42.771Z,18.36
2023-03-17T05:23:44.073Z,18.37
2023-03-17T05:33:45.334Z,18.36
2023-03-17T05:43:46.570Z,18.35
2023-03-17T05:53:47.810Z,18.35
2023-03-17T06:03:49.061Z,18.32
2023-03-17T06:13:50.411Z,18.33
2023-03-17T06:23:51.703Z,18.36
2023-03-17T06:33:52.957Z,18.39
2023-03-17T06:43:54.234Z,18.37
2023-03-17T06:53:55.587Z,18.35
2023-03-17T07:03:56.833Z,18.29
2023-03-17T07:13:58.103Z,18.25
2023-03-17T07:23:59.356Z,18.27
2023-03-17T07:34:00.599Z,18.30
2023-03-17T07:44:01.896Z,18.31
2023-03-17T07:54:03.176Z,18.36
2023-03-17T08:04:04.563Z,18.32
2023-03-17T08:14:05.833Z,18.41
2023-03-17T08:24:07.087Z,18.45
2023-03-17T08:34:08.308Z,18.50
2023-03-17T08:44:09.559Z,18.52
2023-03-17T08:54:10.814Z,18.48
2023-03-17T09:04:12.106Z,18.56
2023-03-17T09:14:13.407Z,18.56
2023-03-17T09:24:14.690Z,18.53
2023-03-17T09:34:15.964Z,18.53
2023-03-17T09:44:17.229Z,18.54
2023-03-17T09:54:18.499Z,18.60
2023-03-17T10:04:19.765Z,18.54
2023-03-17T10:14:21.019Z,18.51
2023-03-17T10:24:22.269Z,18.53
2023-03-17T10:34:23.494Z,18.56
2023-03-17T10:44:24.759Z,18.59
2023-03-17T10:54:26.089Z,18.56
2023-03-17T11:04:27.317Z,18.50
2023-03-17T11:14:28.561Z,18.52
2023-03-17T11:24:31.484Z,18.52
2023-03-17T11:34:33.381Z,18.54
2023-03-17T11:44:34.616Z,18.52
2023-03-17T11:54:35.865Z,18.55
2023-03-17T12:04:37.194Z,18.55
2023-03-17T12:14:38.455Z,18.56
2023-03-17T12:24:39.738Z,18.54
2023-03-17T12:34:41.030Z,18.58
2023-03-17T12:44:42.293Z,18.58
2023-03-17T12:54:43.589Z,18.57
2023-03-17T13:04:44.888Z,18.59
2023-03-17T13:14:46.156Z,18.59
2023-03-17T13:24:47.448Z,18.58
2023-03-17T13:34:48.706Z,18.60
2023-03-17T13:44:50.009Z,18.63
2023-03-17T13:54:51.288Z,18.59
2023-03-17T14:04:52.547Z,18.63
2023-03-17T14:14:53.807Z,18.64
2023-03-17T14:24:56.396Z,18.61
2023-03-17T14:34:57.687Z,18.65
2023-03-17T14:44:58.978Z,18.69
2023-03-17T14:55:00.221Z,18.67
2023-03-17T15:05:01.480Z,18.70
2023-03-17T15:15:02.748Z,18.68
2023-03-17T15:25:04.143Z,18.66
2023-03-17T15:35:05.387Z,18.66
2023-03-17T15:45:06.650Z,18.66
2023-03-17T15:55:07.918Z,18.69
2023-03-17T16:05:09.188Z,18.68
2023-03-17T16:15:22.598Z,18.67
2023-03-17T16:25:24.861Z,18.70
2023-03-17T16:35:26.174Z,18.70
2023-03-17T16:45:27.441Z,18.69
2023-03-17T16:55:28.703Z,18.69
2023-03-17T17:05:30.026Z,18.69
2023-03-17T17:15:31.314Z,18.66
2023-03-17T17:25:32.868Z,18.64
2023-03-17T17:35:34.347Z,18.63
2023-03-17T17:45:35.677Z,18.62
2023-03-17T17:55:37.006Z,18.61
2023-03-17T18:05:38.274Z,18.58
2023-03-17T18:15:39.495Z,18.63
2023-03-17T18:25:40.742Z,18.59
2023-03-17T18:35:42.020Z,18.60
2023-03-17T18:45:43.337Z,18.63
2023-03-17T18:55:44.642Z,18.56
2023-03-17T19:05:45.935Z,18.59
2023-03-17T19:15:47.238Z,18.57
2023-03-17T19:25:48.496Z,18.57
2023-03-17T19:35:49.789Z,18.55
2023-03-17T19:45:51.109Z,18.52
2023-03-17T19:55:52.455Z,18.57
2023-03-17T20:05:53.763Z,18.58
2023-03-17T20:15:55.058Z,18.55
2023-03-17T20:25:56.389Z,18.53
2023-03-17T20:35:57.822Z,18.53
2023-03-17T20:45:59.161Z,18.54
2023-03-17T20:56:00.464Z,18.57
2023-03-17T21:06:01.743Z,18.49
2023-03-17T21:16:03.021Z,18.46
2023-03-17T21:26:04.305Z,18.50
2023-03-17T21:36:05.675Z,18.52
2023-03-17T21:46:07.090Z,18.52
2023-03-17T21:56:08.703Z,18.52
2023-03-17T22:06:10.173Z,18.51
2023-03-17T22:16:11.494Z,18.52
2023-03-17T22:26:12.784Z,18.51
2023-03-17T22:36:14.113Z,18.51
2023-03-17T22:46:15.441Z,18.52
2023-03-17T22:56:16.753Z,18.53
2023-03-17T23:06:18.098Z,18.43
2023-03-17T23:16:19.385Z,18.49
2023-03-17T23:26:20.681Z,18.41
2023-03-17T23:36:21.992Z,18.40
2023-03-17T23:46:23.289Z,18.46
2023-03-17T23:56:24.534Z,18.51
